createdAt,value
2018-05-17T00:03:05.579Z,99492.15
2018-05-17T00:07:12.339Z,99489.99
2018-05-17T00:11:19.056Z,99489.06
2018-05-17T00:15:24.972Z,99487.80
2018-05-17T00:19:28.439Z,99489.23
2018-05-17T00:23:31.849Z,99484.41
2018-05-17T00:27:36.288Z,99483.13
2018-05-17T00:31:38.781Z,99483.16
2018-05-17T00:35:41.255Z,99481.52
2018-05-17T00:39:43.731Z,99486.53
2018-05-17T00:43:46.212Z,99485.30
2018-05-17T00:47:48.696Z,99476.56
2018-05-17T00:51:54.463Z,99476.23
2018-05-17T00:55:56.943Z,99475.40
2018-05-17T00:59:59.427Z,99477.28
2018-05-17T01:04:01.891Z,99473.36
2018-05-17T01:08:04.410Z,99478.23
2018-05-17T01:12:06.903Z,99468.98
2018-05-17T01:16:09.378Z,99474.78
2018-05-17T01:20:11.855Z,99470.86
2018-05-17T01:24:14.343Z,99473.15
2018-05-17T01:28:16.801Z,99461.64
2018-05-17T01:32:19.290Z,99456.36
2018-05-17T01:36:21.746Z,99453.77
2018-05-17T01:40:24.222Z,99452.45
2018-05-17T01:44:26.710Z,99455.09
2018-05-17T01:48:29.199Z,99446.30
2018-05-17T01:52:31.686Z,99430.45
2018-05-17T01:56:34.167Z,99438.47
2018-05-17T02:00:36.616Z,99435.05
2018-05-17T02:04:39.092Z,99437.38
2018-05-17T02:08:41.588Z,99435.75
2018-05-17T02:12:44.045Z,99433.61
2018-05-17T02:16:46.532Z,99425.75
2018-05-17T02:20:49.010Z,99428.05
2018-05-17T02:24:51.521Z,99434.77
2018-05-17T02:28:54.000Z,99436.55
2018-05-17T02:32:56.606Z,99434.88
2018-05-17T02:36:58.981Z,99427.45
2018-05-17T02:41:01.471Z,99438.54
2018-05-17T02:45:03.950Z,99443.87
2018-05-17T02:49:06.468Z,99446.08
2018-05-17T02:53:08.943Z,99454.09
2018-05-17T02:57:11.439Z,99441.76
2018-05-17T03:01:13.892Z,99441.76
2018-05-17T03:05:16.357Z,99447.55
2018-05-17T03:09:18.844Z,99440.97
2018-05-17T03:13:21.340Z,99445.46
2018-05-17T03:17:23.842Z,99453.01
2018-05-17T03:21:26.333Z,99454.34
2018-05-17T03:25:28.821Z,99454.28
2018-05-17T03:29:31.331Z,99453.80
2018-05-17T03:33:33.839Z,99460.87
2018-05-17T03:37:36.315Z,99467.50
2018-05-17T03:41:38.835Z,99459.50
2018-05-17T03:45:41.291Z,99465.64
2018-05-17T03:49:43.779Z,99463.88
2018-05-17T03:53:46.250Z,99466.88
2018-05-17T03:57:48.733Z,99461.50
2018-05-17T04:02:02.953Z,99463.66
2018-05-17T04:06:18.214Z,99472.45
2018-05-17T04:10:20.727Z,99472.34
2018-05-17T04:14:23.205Z,99467.44
2018-05-17T04:18:25.691Z,99465.59
2018-05-17T04:22:28.180Z,99471.40
2018-05-17T04:26:30.670Z,99472.20
2018-05-17T04:30:33.161Z,99473.50
2018-05-17T04:34:35.651Z,99477.39
2018-05-17T04:38:38.151Z,99475.14
2018-05-17T04:42:40.657Z,99477.63
2018-05-17T04:46:43.122Z,99478.38
2018-05-17T04:50:45.610Z,99480.05
2018-05-17T04:54:48.129Z,99475.08
2018-05-17T04:58:50.595Z,99469.26
2018-05-17T05:02:53.105Z,99485.55
2018-05-17T05:06:55.583Z,99482.74
2018-05-17T07:11:24.647Z,99525.08
2018-05-17T07:15:27.379Z,99531.53
2018-05-17T09:24:29.991Z,99585.59
2018-05-17T11:33:32.444Z,99658.83
2018-05-17T11:37:34.913Z,99658.10
2018-05-17T11:41:37.389Z,99655.34
2018-05-17T11:45:39.879Z,99657.50
2018-05-17T11:49:42.385Z,99653.05
2018-05-17T11:53:44.875Z,99648.70
2018-05-17T11:57:47.339Z,99654.05
2018-05-17T12:01:49.825Z,99652.78
2018-05-17T12:05:52.315Z,99647.84
2018-05-17T12:09:54.797Z,99648.20
2018-05-17T12:13:57.294Z,99643.21
2018-05-17T12:17:59.763Z,99642.81
2018-05-17T12:22:02.247Z,99649.53
2018-05-17T12:26:04.734Z,99636.67
2018-05-17T12:30:07.219Z,99643.75
2018-05-17T12:34:09.722Z,99644.25
2018-05-17T12:38:12.188Z,99646.04
2018-05-17T12:42:14.683Z,99640.26
2018-05-17T12:46:17.153Z,99642.31
2018-05-17T12:50:19.638Z,99631.88
2018-05-17T12:54:22.131Z,99629.86
2018-05-17T12:58:24.617Z,99623.33
2018-05-17T13:02:27.099Z,99622.52
2018-05-17T13:06:29.612Z,99629.89
2018-05-17T13:10:32.064Z,99623.02
2018-05-17T13:14:34.555Z,99626.27
2018-05-17T13:18:37.035Z,99627.75
2018-05-17T13:22:39.486Z,99620.03
2018-05-17T13:26:41.963Z,99630.60
2018-05-17T13:30:44.447Z,99624.85
2018-05-17T13:34:46.941Z,99620.43
2018-05-17T13:38:49.425Z,99621.36
2018-05-17T13:42:51.902Z,99619.25
2018-05-17T13:46:54.380Z,99618.44
2018-05-17T15:14:08.588Z,99621.72
2018-05-17T15:32:08.972Z,99619.47
2018-05-17T15:36:11.477Z,99619.23
2018-05-17T15:40:14.894Z,99624.91
2018-05-17T15:44:17.377Z,99616.64
2018-05-17T15:48:19.886Z,99614.15
2018-05-17T15:52:22.347Z,99614.66
2018-05-17T15:56:24.813Z,99618.61
2018-05-17T16:00:29.318Z,99624.84
2018-05-17T16:04:31.805Z,99625.47
2018-05-17T16:08:34.331Z,99625.94
2018-05-17T16:12:36.758Z,99621.16
2018-05-17T16:16:39.244Z,99624.69
2018-05-17T16:20:41.722Z,99626.11
2018-05-17T16:24:44.198Z,99628.30
2018-05-17T16:28:46.673Z,99631.58
2018-05-17T16:32:49.128Z,99634.02
2018-05-17T16:36:51.608Z,99631.83
2018-05-17T16:40:54.110Z,99636.37
2018-05-17T16:44:56.563Z,99638.28
2018-05-17T16:48:59.042Z,99642.86
2018-05-17T16:53:01.546Z,99645.59
2018-05-17T16:57:04.023Z,99647.75
2018-05-17T17:01:06.530Z,99646.45
2018-05-17T17:05:09.104Z,99653.03
2018-05-17T17:09:12.498Z,99641.99
2018-05-17T17:13:14.953Z,99653.62
2018-05-17T17:17:17.437Z,99647.47
2018-05-17T17:21:19.915Z,99645.66
2018-05-17T17:25:22.409Z,99643.44
2018-05-17T17:29:24.903Z,99649.66
2018-05-17T17:33:27.375Z,99636.89
2018-05-17T17:37:29.880Z,99639.98
2018-05-17T17:41:32.367Z,99633.34
2018-05-17T17:45:34.858Z,99634.78
2018-05-17T17:49:37.322Z,99638.77
2018-05-17T17:53:39.911Z,99633.41
2018-05-17T17:57:42.364Z,99648.13
2018-05-17T18:01:44.857Z,99649.09
2018-05-17T18:05:48.283Z,99648.66
2018-05-17T18:09:50.869Z,99648.66
2018-05-17T18:13:53.327Z,99651.36
2018-05-17T18:17:55.822Z,99655.31
2018-05-17T18:21:58.303Z,99653.98
2018-05-17T18:26:00.796Z,99658.37
2018-05-17T18:30:03.276Z,99665.05
2018-05-17T18:34:06.706Z,99660.59
2018-05-17T18:38:10.226Z,99664.98
2018-05-17T18:42:14.671Z,99668.58
2018-05-17T18:46:17.152Z,99675.80
2018-05-17T18:50:19.641Z,99675.95
2018-05-17T18:54:23.029Z,99679.97
2018-05-17T18:58:26.465Z,99681.84
2018-05-17T19:02:28.922Z,99692.95
2018-05-17T19:06:31.388Z,99696.94
2018-05-17T19:10:33.867Z,99709.81
2018-05-17T19:14:36.349Z,99711.60
2018-05-17T19:18:38.805Z,99720.84
2018-05-17T19:22:41.274Z,99722.97
2018-05-17T19:26:44.723Z,99726.46
2018-05-17T19:30:47.211Z,99736.63
2018-05-17T19:34:50.682Z,99745.05
2018-05-17T19:38:53.162Z,99749.01
2018-05-17T19:42:55.647Z,99753.53
2018-05-17T19:46:58.131Z,99747.70
2018-05-17T19:51:07.299Z,99740.59
2018-05-17T19:55:11.740Z,99745.02
2018-05-17T20:03:58.470Z,99747.31
2018-05-17T20:17:16.141Z,99745.95
2018-05-17T20:21:18.631Z,99745.91
2018-05-17T20:25:21.155Z,99746.78
2018-05-17T20:29:23.670Z,99751.67
2018-05-17T20:33:26.116Z,99761.45
2018-05-17T20:37:28.610Z,99761.45
2018-05-17T20:41:31.100Z,99765.83
2018-05-17T20:45:33.584Z,99767.59
2018-05-17T20:49:36.173Z,99769.86
2018-05-17T20:53:38.558Z,99772.98
2018-05-17T20:57:41.057Z,99776.97
2018-05-17T21:01:43.542Z,99775.71
2018-05-17T21:05:46.006Z,99769.89
2018-05-17T21:09:48.492Z,99770.32
2018-05-17T21:13:50.972Z,99768.12
2018-05-17T21:17:53.427Z,99768.16
2018-05-17T21:21:55.915Z,99771.69
2018-05-17T21:25:58.375Z,99770.39
2018-05-17T21:30:00.876Z,99774.84
2018-05-17T21:34:03.494Z,99772.69
2018-05-17T21:38:06.870Z,99778.47
2018-05-17T21:42:09.361Z,99773.15
2018-05-17T21:46:11.838Z,99774.52
2018-05-17T21:50:14.325Z,99773.25
2018-05-17T21:54:17.731Z,99774.58
2018-05-17T21:58:20.288Z,99767.92
2018-05-17T22:02:22.779Z,99779.44
2018-05-17T22:06:25.256Z,99769.30
2018-05-17T22:10:27.709Z,99775.08
2018-05-17T22:14:30.214Z,99764.00
2018-05-17T22:18:32.699Z,99764.47
2018-05-17T22:22:35.159Z,99766.30
2018-05-17T22:26:37.646Z,99773.45
2018-05-17T22:30:43.679Z,99775.23
2018-05-17T22:34:50.642Z,99778.80
2018-05-17T22:38:55.078Z,99785.05
2018-05-17T22:42:59.520Z,99781.02
2018-05-17T22:47:03.947Z,99781.39
2018-05-17T22:51:16.948Z,99777.41
2018-05-17T22:55:23.018Z,99780.46
2018-05-17T22:59:31.569Z,99780.46
2018-05-17T23:03:40.283Z,99775.14
2018-05-17T23:07:48.256Z,99779.09
2018-05-17T23:11:51.767Z,99778.23
2018-05-17T23:15:55.279Z,99769.39
2018-05-17T23:20:09.914Z,99772.95
2018-05-17T23:24:12.412Z,99776.04
2018-05-17T23:28:16.848Z,99773.81
2018-05-17T23:32:22.280Z,99774.24
2018-05-17T23:36:30.059Z,99774.21
2018-05-17T23:56:09.859Z,99772.98
